Time;durP1;ratioP1;P1;durP2;ratioP2;P2;SDS_P1;SDS_P2;PMS_P1;PMS_P2;Temp;Humidity;BMP_temperature;BMP_pressure;BME280_temperature;BME280_humidity;BME280_pressure;Samples;Min_cycle;Max_cycle;Signal;HPM_P1;HPM_P2
2023/07/08 00:02:45;;;;;;;11.30;10.30;;;;;;;20.29;67.58;95203.31;5114736;28;20188;-75
2023/07/08 00:05:49;;;;;;;11.98;10.98;;;;;;;20.27;67.68;95202.94;5115791;28;20179;-75
2023/07/08 00:08:55;;;;;;;11.57;10.68;;;;;;;20.24;67.83;95193.34;5114486;28;20188;-75
2023/07/08 00:12:00;;;;;;;11.95;10.88;;;;;;;20.23;68.11;95190.97;5115518;28;20194;-75
2023/07/08 00:15:10;;;;;;;11.55;10.45;;;;;;;20.17;67.93;95185.81;5114724;28;20199;-75
2023/07/08 00:17:39;;;;;;;11.98;10.88;;;;;;;20.15;68.24;95179.00;5114950;28;20604;-75
2023/07/08 00:20:13;;;;;;;12.20;11.10;;;;;;;20.11;68.06;95167.84;5115624;28;20244;-74
2023/07/08 00:22:46;;;;;;;12.40;11.35;;;;;;;20.11;68.54;95164.25;5114483;28;20195;-74
2023/07/08 00:25:15;;;;;;;12.50;11.30;;;;;;;20.08;68.57;95162.28;5115370;28;20195;-74
2023/07/08 00:27:42;;;;;;;12.82;11.55;;;;;;;20.08;68.32;95174.28;5114047;28;20260;-75
2023/07/08 00:30:19;;;;;;;12.35;11.25;;;;;;;20.07;68.04;95177.47;5114637;28;20222;-74
2023/07/08 00:32:53;;;;;;;11.82;10.73;;;;;;;20.06;68.20;95176.69;5114047;28;20199;-75
2023/07/08 00:35:36;;;;;;;11.90;10.85;;;;;;;20.03;68.53;95177.50;5114977;28;20260;-74
2023/07/08 00:38:12;;;;;;;12.73;11.63;;;;;;;20.02;68.15;95172.34;5115387;28;20192;-74
2023/07/08 00:40:50;;;;;;;11.13;10.23;;;;;;;20.01;68.69;95165.94;5117529;28;20248;-74
2023/07/08 00:43:20;;;;;;;11.85;10.95;;;;;;;20.00;68.46;95161.53;5117564;28;20646;-74
2023/07/08 00:45:50;;;;;;;12.10;11.00;;;;;;;19.99;68.45;95170.34;5118309;28;20198;-74
2023/07/08 00:48:21;;;;;;;12.52;10.98;;;;;;;19.99;68.16;95159.16;5118727;28;20196;-75
2023/07/08 00:50:48;;;;;;;11.75;10.77;;;;;;;19.94;68.58;95163.19;5118935;28;20184;-75
2023/07/08 00:53:25;;;;;;;11.85;10.75;;;;;;;19.90;68.65;95152.03;5118722;28;20202;-74
2023/07/08 00:55:55;;;;;;;11.73;10.73;;;;;;;19.89;68.72;95156.00;5119020;28;20199;-74
2023/07/08 00:58:24;;;;;;;11.05;10.07;;;;;;;19.87;68.79;95143.66;5118021;28;20200;-74
2023/07/08 01:00:56;;;;;;;12.27;11.13;;;;;;;19.82;68.79;95153.28;5117822;28;20207;-74
2023/07/08 01:03:24;;;;;;;11.65;10.73;;;;;;;19.79;69.51;95148.53;5118761;28;20212;-74
2023/07/08 01:05:56;;;;;;;11.13;10.20;;;;;;;19.80;69.04;95143.72;5118547;28;20192;-75
2023/07/08 01:08:28;;;;;;;10.73;9.82;;;;;;;19.74;69.48;95137.75;5117740;28;20206;-74
2023/07/08 01:10:59;;;;;;;11.20;10.20;;;;;;;19.69;69.46;95141.78;5118247;28;20603;-74
2023/07/08 01:13:28;;;;;;;10.93;9.90;;;;;;;19.67;69.72;95143.38;5118611;28;20248;-74
2023/07/08 01:15:56;;;;;;;10.93;10.00;;;;;;;19.65;69.53;95145.81;5118189;28;20180;-74
2023/07/08 01:18:24;;;;;;;11.05;10.15;;;;;;;19.63;69.90;95143.41;5118549;28;20184;-74
2023/07/08 01:20:55;;;;;;;11.50;10.50;;;;;;;19.56;70.00;95137.81;5117411;28;20206;-74
2023/07/08 01:23:24;;;;;;;10.75;9.85;;;;;;;19.51;70.34;95132.69;5118073;28;20184;-74
2023/07/08 01:25:51;;;;;;;10.38;9.48;;;;;;;19.46;70.25;95136.72;5117961;28;20563;-74
2023/07/08 01:28:19;;;;;;;11.93;10.23;;;;;;;19.46;69.92;95141.47;5118210;28;20231;-74
2023/07/08 01:30:48;;;;;;;11.05;10.05;;;;;;;19.42;69.94;95126.72;5118048;28;20260;-74
2023/07/08 01:33:19;;;;;;;10.88;9.98;;;;;;;19.46;69.95;95131.13;5118241;28;20188;-74
2023/07/08 01:35:49;;;;;;;11.02;10.02;;;;;;;19.41;70.14;95139.13;5118099;27;20306;-74
2023/07/08 01:38:20;;;;;;;11.32;10.15;;;;;;;19.46;70.10;95135.88;5118261;28;20192;-72
2023/07/08 01:40:55;;;;;;;10.32;9.35;;;;;;;19.46;70.16;95144.28;5118036;28;20307;-74
2023/07/08 01:43:22;;;;;;;10.30;9.40;;;;;;;19.50;69.56;95133.91;5117066;28;20211;-74
2023/07/08 01:45:54;;;;;;;10.25;9.35;;;;;;;19.49;70.20;95126.69;5117386;28;20210;-75
2023/07/08 01:48:23;;;;;;;10.15;9.25;;;;;;;19.51;69.99;95126.28;5117899;28;20210;-74
2023/07/08 01:50:55;;;;;;;9.68;8.88;;;;;;;19.52;69.45;95123.06;5115997;28;20219;-75
2023/07/08 01:53:29;;;;;;;10.77;9.70;;;;;;;19.54;69.57;95126.28;5116869;28;20191;-75
2023/07/08 01:55:57;;;;;;;10.32;9.43;;;;;;;19.56;69.75;95121.03;5117137;28;20199;-75
2023/07/08 01:58:24;;;;;;;9.98;9.05;;;;;;;19.58;69.45;95124.25;5117772;28;20196;-75
2023/07/08 02:00:51;;;;;;;9.70;8.90;;;;;;;19.60;69.65;95121.03;5116698;28;20196;-75
2023/07/08 02:03:18;;;;;;;9.63;8.82;;;;;;;19.59;69.47;95125.03;5116645;28;20203;-75
2023/07/08 02:05:46;;;;;;;9.23;8.43;;;;;;;19.57;69.71;95119.88;5117606;28;20180;-75
2023/07/08 02:08:13;;;;;;;9.70;8.90;;;;;;;19.55;69.63;95127.06;5116879;28;20543;-75
2023/07/08 02:10:44;;;;;;;9.40;8.57;;;;;;;19.54;69.52;95129.06;5116981;28;20225;-75
2023/07/08 02:13:12;;;;;;;9.52;8.65;;;;;;;19.53;69.79;95132.25;5117458;28;20191;-75
2023/07/08 02:15:40;;;;;;;9.75;8.82;;;;;;;19.53;69.87;95141.44;5117336;28;20540;-76
2023/07/08 02:18:07;;;;;;;10.43;9.43;;;;;;;19.49;70.15;95137.88;5116565;28;20191;-75
2023/07/08 02:20:34;;;;;;;9.30;8.52;;;;;;;19.48;69.96;95144.69;5117339;28;20191;-74
2023/07/08 02:23:01;;;;;;;9.63;8.80;;;;;;;19.49;70.11;95143.47;5116239;28;20204;-75
2023/07/08 02:25:32;;;;;;;9.15;8.35;;;;;;;19.47;70.12;95143.88;5117160;28;20203;-70
2023/07/08 02:28:00;;;;;;;9.75;8.95;;;;;;;19.48;69.62;95153.06;5116986;28;20235;-70
2023/07/08 02:30:29;;;;;;;9.70;8.90;;;;;;;19.47;70.28;95155.06;5116664;28;20211;-69
2023/07/08 02:33:00;;;;;;;9.60;8.70;;;;;;;19.47;69.68;95151.50;5116005;28;20677;-70
2023/07/08 02:35:33;;;;;;;9.73;8.85;;;;;;;19.46;69.71;95156.28;5116681;28;20227;-70
2023/07/08 02:38:04;;;;;;;9.85;9.05;;;;;;;19.41;70.01;95155.91;5116043;28;20206;-70
2023/07/08 02:40:32;;;;;;;10.30;9.32;;;;;;;19.42;70.01;95155.50;5115805;28;20214;-70
2023/07/08 02:42:59;;;;;;;9.43;8.52;;;;;;;19.43;69.99;95159.09;5115986;28;20196;-68
2023/07/08 02:45:31;;;;;;;10.02;9.13;;;;;;;19.44;69.91;95169.09;5116906;28;20187;-70
2023/07/08 02:48:02;;;;;;;10.30;9.40;;;;;;;19.44;70.16;95171.88;5116200;28;20196;-68
2023/07/08 02:50:31;;;;;;;10.00;9.02;;;;;;;19.44;69.99;95177.47;5116630;28;20208;-68
2023/07/08 02:52:57;;;;;;;9.98;9.07;;;;;;;19.44;70.22;95183.06;5115667;28;20187;-68
2023/07/08 02:55:26;;;;;;;10.15;9.13;;;;;;;19.44;70.27;95181.06;5115624;28;20203;-69
2023/07/08 02:57:52;;;;;;;10.00;9.20;;;;;;;19.44;70.07;95183.84;5115507;28;20203;-69
2023/07/08 03:00:19;;;;;;;10.45;9.55;;;;;;;19.44;69.98;95180.28;5115462;28;20192;-68
2023/07/08 03:02:48;;;;;;;9.93;9.20;;;;;;;19.40;69.99;95185.88;5116064;28;20187;-73
2023/07/08 03:05:16;;;;;;;10.05;9.00;;;;;;;19.40;70.31;95180.28;5115962;28;20192;-67
2023/07/08 03:07:43;;;;;;;9.90;9.02;;;;;;;19.40;70.29;95182.28;5115521;28;20249;-67
2023/07/08 03:10:11;;;;;;;10.15;9.20;;;;;;;19.40;70.26;95185.88;5116413;28;20207;-68
2023/07/08 03:12:37;;;;;;;9.93;9.13;;;;;;;19.38;71.07;95182.69;5116168;28;20252;-70
2023/07/08 03:15:06;;;;;;;9.90;9.00;;;;;;;19.35;70.97;95180.69;5116231;28;20180;-67
2023/07/08 03:17:33;;;;;;;9.90;8.90;;;;;;;19.31;71.03;95174.31;5115763;28;20188;-71
2023/07/08 03:20:04;;;;;;;9.38;8.57;;;;;;;19.30;70.61;95177.53;5115803;28;20207;-67
2023/07/08 03:22:32;;;;;;;8.90;8.18;;;;;;;19.30;70.34;95180.34;5114931;28;20298;-67
2023/07/08 03:25:01;;;;;;;8.73;7.97;;;;;;;19.30;70.73;95178.34;5114842;28;20204;-67
2023/07/08 03:27:28;;;;;;;8.77;8.07;;;;;;;19.32;70.56;95175.94;5115647;28;20184;-68
2023/07/08 03:29:56;;;;;;;8.95;8.05;;;;;;;19.33;70.39;95171.16;5116123;28;20222;-67
2023/07/08 03:32:26;;;;;;;8.43;7.82;;;;;;;19.34;70.55;95175.53;5115226;28;20202;-67
2023/07/08 03:34:56;;;;;;;9.07;8.27;;;;;;;19.33;70.71;95179.53;5114990;28;20235;-67
2023/07/08 03:37:25;;;;;;;9.18;8.38;;;;;;;19.31;70.83;95168.72;5115968;28;20184;-67
2023/07/08 03:39:55;;;;;;;8.80;8.10;;;;;;;19.30;70.71;95169.16;5115042;28;20576;-67
2023/07/08 03:42:22;;;;;;;8.65;7.85;;;;;;;19.28;70.80;95163.97;5115826;28;20286;-67
2023/07/08 03:44:49;;;;;;;8.40;7.70;;;;;;;19.28;71.27;95157.56;5115723;28;20203;-67
2023/07/08 03:47:16;;;;;;;7.70;7.00;;;;;;;19.27;71.55;95153.97;5114880;28;20207;-67
2023/07/08 03:49:43;;;;;;;8.15;7.45;;;;;;;19.24;71.70;95155.59;5115679;28;20207;-67
2023/07/08 03:52:16;;;;;;;8.30;7.63;;;;;;;19.22;71.68;95158.00;5114697;28;20203;-67
2023/07/08 03:54:45;;;;;;;9.88;8.02;;;;;;;19.19;71.85;95155.22;5114720;28;20191;-67
2023/07/08 03:57:12;;;;;;;8.80;8.00;;;;;;;19.18;72.08;95159.22;5114444;28;20199;-67
2023/07/08 03:59:39;;;;;;;8.10;7.50;;;;;;;19.18;72.61;95153.63;5115262;28;20195;-67
2023/07/08 04:02:06;;;;;;;8.35;7.55;;;;;;;19.17;72.82;95141.66;5114721;28;20204;-67
2023/07/08 04:04:37;;;;;;;8.52;7.82;;;;;;;19.16;72.87;95151.22;5114806;28;20195;-67
2023/07/08 04:07:43;;;;;;;7.88;7.18;;;;;;;19.15;72.81;95144.06;5114681;28;20206;-67
2023/07/08 04:10:47;;;;;;;8.20;7.40;;;;;;;19.15;73.45;95158.03;5033211;28;20682;-67
2023/07/08 04:13:50;;;;;;;7.88;7.07;;;;;;;19.18;72.89;95159.22;5016769;28;20645;-67
2023/07/08 04:16:57;;;;;;;8.55;7.82;;;;;;;19.21;73.34;95166.81;5020760;28;20210;-67
2023/07/08 04:20:06;;;;;;;7.57;6.85;;;;;;;19.19;73.31;95161.59;5020833;28;20296;-67
2023/07/08 04:23:09;;;;;;;7.80;7.18;;;;;;;19.21;72.69;95156.41;5020680;28;20206;-67
2023/07/08 04:26:13;;;;;;;8.10;7.40;;;;;;;19.25;72.54;95162.00;5020917;28;20198;-67
2023/07/08 04:29:17;;;;;;;7.97;7.18;;;;;;;19.30;71.94;95169.16;5036313;28;20241;-67
2023/07/08 04:32:24;;;;;;;7.72;7.03;;;;;;;19.33;71.92;95166.34;5036777;28;20225;-67
2023/07/08 04:35:28;;;;;;;9.05;8.15;;;;;;;19.36;71.61;95165.53;5102128;28;20214;-67
2023/07/08 04:38:36;;;;;;;8.95;8.07;;;;;;;19.37;71.02;95174.72;5119342;28;20183;-67
2023/07/08 04:41:43;;;;;;;9.00;7.70;;;;;;;19.37;70.89;95171.91;5118323;28;20196;-67
2023/07/08 04:44:49;;;;;;;8.02;7.35;;;;;;;19.37;71.38;95174.72;5119187;28;20218;-67
2023/07/08 04:47:53;;;;;;;8.73;8.00;;;;;;;19.37;71.01;95175.50;5118581;28;20203;-67
2023/07/08 04:50:58;;;;;;;7.57;6.88;;;;;;;19.36;70.99;95173.13;5118288;28;20280;-67
2023/07/08 04:54:02;;;;;;;8.00;7.25;;;;;;;19.37;71.05;95174.72;5119075;28;20194;-68
2023/07/08 04:57:09;;;;;;;7.70;7.10;;;;;;;19.39;71.44;95181.50;5118102;28;20256;-67
2023/07/08 05:00:13;;;;;;;7.90;7.22;;;;;;;19.40;71.44;95180.28;5118997;28;20226;-67
2023/07/08 05:03:17;;;;;;;8.43;7.63;;;;;;;19.41;71.31;95189.47;5117898;28;20199;-67
2023/07/08 05:06:21;;;;;;;7.20;6.60;;;;;;;19.45;71.12;95193.84;5117965;28;20195;-67
2023/07/08 05:09:27;;;;;;;7.05;6.45;;;;;;;19.49;71.21;95197.41;5117750;28;20188;-67
2023/07/08 05:11:58;;;;;;;7.90;7.20;;;;;;;19.54;71.66;95190.63;5118735;28;20203;-67
2023/07/08 05:14:26;;;;;;;7.68;7.00;;;;;;;19.57;71.38;95195.41;5118417;28;20196;-68
2023/07/08 05:16:52;;;;;;;8.07;7.28;;;;;;;19.60;70.52;95196.56;5117550;28;20184;-67
2023/07/08 05:19:21;;;;;;;7.88;7.18;;;;;;;19.62;70.57;95194.16;5117317;28;20195;-67
2023/07/08 05:21:49;;;;;;;8.35;7.65;;;;;;;19.61;69.75;95193.38;5118593;28;20183;-67
2023/07/08 05:24:16;;;;;;;7.97;7.28;;;;;;;19.60;69.78;95208.53;5118508;28;20188;-67
2023/07/08 05:26:42;;;;;;;7.47;6.78;;;;;;;19.63;69.57;95204.97;5116019;28;20208;-67
2023/07/08 05:29:12;;;;;;;7.97;7.38;;;;;;;19.64;69.63;95217.75;5117769;28;20296;-67
2023/07/08 05:31:40;;;;;;;7.00;6.40;;;;;;;19.67;69.16;95204.94;5118174;28;20203;-67
2023/07/08 05:34:07;;;;;;;7.38;6.78;;;;;;;19.68;69.21;95210.16;5117962;28;20188;-68
2023/07/08 05:36:33;;;;;;;7.43;6.70;;;;;;;19.69;69.05;95206.13;5117295;28;20196;-68
2023/07/08 05:39:02;;;;;;;8.13;7.43;;;;;;;19.73;69.06;95200.53;5117878;28;20669;-68
2023/07/08 05:41:28;;;;;;;7.63;6.97;;;;;;;19.73;68.93;95208.13;5118267;28;20172;-68
2023/07/08 05:43:56;;;;;;;7.45;6.72;;;;;;;19.72;68.42;95210.13;5117955;28;20200;-68
2023/07/08 05:46:27;;;;;;;7.18;6.57;;;;;;;19.72;68.68;95212.94;5117177;28;20212;-68
2023/07/08 05:48:54;;;;;;;7.13;6.53;;;;;;;19.72;68.36;95215.72;5117641;28;20188;-67
2023/07/08 05:51:22;;;;;;;7.65;7.05;;;;;;;19.73;68.61;95222.13;5116975;28;20247;-67
2023/07/08 05:53:51;;;;;;;7.60;6.90;;;;;;;19.73;68.54;95214.50;5116730;28;20249;-67
2023/07/08 05:56:17;;;;;;;7.25;6.68;;;;;;;19.70;68.30;95220.91;5117169;28;20184;-67
2023/07/08 05:58:44;;;;;;;7.50;6.88;;;;;;;19.70;68.81;95220.91;5116578;28;20204;-67
2023/07/08 06:01:11;;;;;;;7.38;6.68;;;;;;;19.73;69.12;95220.09;5117509;28;20218;-67
2023/07/08 06:03:42;;;;;;;7.45;6.85;;;;;;;19.73;69.12;95219.31;5117634;28;20184;-67
2023/07/08 06:06:10;;;;;;;7.60;6.53;;;;;;;19.75;69.01;95226.06;5116830;28;20204;-67
2023/07/08 06:08:36;;;;;;;8.20;7.40;;;;;;;19.79;69.10;95223.25;5117519;28;20195;-67
2023/07/08 06:11:05;;;;;;;7.15;6.55;;;;;;;19.82;69.35;95228.84;5117150;28;20207;-67
2023/07/08 06:13:32;;;;;;;7.72;7.00;;;;;;;19.85;69.56;95225.22;5117238;28;20527;-67
2023/07/08 06:16:00;;;;;;;7.88;7.18;;;;;;;19.91;69.07;95234.00;5117058;28;20600;-67
2023/07/08 06:18:27;;;;;;;8.05;7.32;;;;;;;19.92;68.75;95233.56;5116609;28;20203;-67
2023/07/08 06:21:02;;;;;;;7.68;6.90;;;;;;;19.96;68.56;95230.75;5117337;28;20188;-67
2023/07/08 06:23:31;;;;;;;7.18;6.57;;;;;;;20.00;68.24;95233.53;5116273;28;20244;-67
2023/07/08 06:25:57;;;;;;;7.13;6.43;;;;;;;20.02;67.74;95236.72;5116608;28;20220;-67
2023/07/08 06:28:25;;;;;;;7.45;6.60;;;;;;;20.04;67.55;95242.69;5116905;28;20239;-68
2023/07/08 06:30:53;;;;;;;7.32;6.63;;;;;;;20.03;66.75;95241.09;5116977;28;20218;-67
2023/07/08 06:33:21;;;;;;;6.88;6.38;;;;;;;20.05;67.26;95228.31;5116266;28;20513;-67
2023/07/08 06:35:48;;;;;;;7.13;6.53;;;;;;;20.09;66.85;95231.88;5116925;28;20192;-67
2023/07/08 06:38:17;;;;;;;7.40;6.60;;;;;;;20.13;67.24;95238.25;5115849;28;20192;-67
2023/07/08 06:40:44;;;;;;;6.90;6.30;;;;;;;20.16;66.12;95233.84;5116907;28;20172;-67
2023/07/08 06:43:11;;;;;;;7.00;6.40;;;;;;;20.19;65.64;95235.81;5098964;28;20252;-67
2023/07/08 06:45:38;;;;;;;6.93;6.22;;;;;;;20.26;65.17;95226.53;5116909;28;20187;-67
2023/07/08 06:48:06;;;;;;;7.75;6.57;;;;;;;20.30;64.44;95238.50;5116762;28;20196;-67
2023/07/08 06:50:33;;;;;;;7.38;6.68;;;;;;;20.33;63.59;95229.28;5116422;28;20255;-67
2023/07/08 06:53:01;;;;;;;8.98;6.55;;;;;;;20.34;63.53;95237.28;5115668;28;20199;-67
2023/07/08 06:55:30;;;;;;;6.60;6.05;;;;;;;20.37;64.00;95238.44;5116343;28;20191;-67
2023/07/08 06:57:58;;;;;;;6.72;5.97;;;;;;;20.41;64.86;95234.44;5116465;28;20210;-67
2023/07/08 07:00:26;;;;;;;7.05;6.35;;;;;;;20.47;64.87;95234.78;5115727;28;20192;-67
2023/07/08 07:02:52;;;;;;;6.45;5.90;;;;;;;20.54;65.56;95240.34;5116459;28;20199;-67
2023/07/08 07:05:20;;;;;;;8.13;7.00;;;;;;;20.57;64.64;95235.94;5117124;28;20176;-67
2023/07/08 07:07:47;;;;;;;6.60;6.00;;;;;;;20.60;64.55;95240.72;5115253;28;20531;-67
2023/07/08 07:10:14;;;;;;;7.35;6.65;;;;;;;20.64;65.19;95233.06;5116371;28;20180;-67
2023/07/08 07:12:43;;;;;;;7.22;6.63;;;;;;;20.62;63.33;95238.28;5098527;28;20199;-67
2023/07/08 07:15:11;;;;;;;6.53;5.88;;;;;;;20.60;63.14;95238.69;5116246;28;20192;-67
2023/07/08 07:17:41;;;;;;;7.22;6.63;;;;;;;20.64;62.34;95244.28;5115891;28;20199;-67
2023/07/08 07:20:09;;;;;;;7.30;6.65;;;;;;;20.65;63.14;95251.47;5116361;28;20180;-67
2023/07/08 07:22:36;;;;;;;7.65;6.75;;;;;;;20.65;63.53;95257.84;5115874;28;20188;-67
2023/07/08 07:25:04;;;;;;;7.43;6.75;;;;;;;20.68;64.03;95262.63;5116029;28;20495;-67
2023/07/08 07:27:31;;;;;;;7.72;7.00;;;;;;;20.72;64.19;95256.22;5115592;28;20199;-67
2023/07/08 07:30:02;;;;;;;7.93;7.10;;;;;;;20.75;64.05;95270.19;5114820;28;20588;-67
2023/07/08 07:32:31;;;;;;;7.70;6.75;;;;;;;20.79;65.59;95261.75;5115921;28;20207;-67
2023/07/08 07:34:59;;;;;;;8.15;7.35;;;;;;;20.81;64.75;95276.16;5115907;28;20180;-68
2023/07/08 07:37:26;;;;;;;7.60;6.80;;;;;;;20.81;64.33;95270.56;5115932;28;20191;-67
2023/07/08 07:39:55;;;;;;;7.72;7.03;;;;;;;20.79;64.08;95267.34;5115329;28;20192;-67
2023/07/08 07:42:24;;;;;;;7.85;7.15;;;;;;;20.78;63.58;95274.97;5115949;28;20176;-67
2023/07/08 07:44:51;;;;;;;7.85;7.15;;;;;;;20.75;63.47;95284.22;5114549;28;20192;-68
2023/07/08 07:47:21;;;;;;;7.90;7.13;;;;;;;20.72;63.87;95267.41;5116015;28;20204;-67
2023/07/08 07:49:48;;;;;;;7.43;6.80;;;;;;;20.73;63.57;95266.19;5113865;28;20208;-67
2023/07/08 07:52:18;;;;;;;7.15;6.55;;;;;;;20.77;63.66;95276.19;5115456;28;20662;-67
2023/07/08 07:54:45;;;;;;;9.00;6.50;;;;;;;20.83;62.83;95273.72;5114701;28;20198;-67
2023/07/08 07:57:12;;;;;;;6.55;6.05;;;;;;;20.89;62.48;95270.06;5114951;28;20191;-67
2023/07/08 07:59:41;;;;;;;8.25;7.25;;;;;;;20.93;61.59;95267.22;5115339;28;20631;-67
2023/07/08 08:02:11;;;;;;;6.80;6.30;;;;;;;20.98;62.04;95272.38;5115620;28;20176;-67
2023/07/08 08:04:41;;;;;;;7.57;6.88;;;;;;;21.06;62.14;95278.69;5114625;28;20275;-67
2023/07/08 08:07:09;;;;;;;7.78;6.78;;;;;;;21.09;61.24;95284.28;5114927;28;20264;-67
2023/07/08 08:09:38;;;;;;;7.80;7.07;;;;;;;21.13;61.20;95275.81;5114590;28;20196;-67
2023/07/08 08:12:09;;;;;;;7.85;7.15;;;;;;;21.14;61.01;95271.84;5114303;28;20207;-67
2023/07/08 08:14:38;;;;;;;7.07;6.47;;;;;;;21.15;61.81;95274.22;5115526;28;20562;-67
2023/07/08 08:17:47;;;;;;;6.95;6.45;;;;;;;21.19;61.46;95273.38;5114588;28;20192;-67
2023/07/08 08:20:51;;;;;;;7.55;6.85;;;;;;;21.22;61.67;95280.97;5114778;28;20195;-67
2023/07/08 08:23:58;;;;;;;8.73;6.63;;;;;;;21.30;61.63;95277.66;5115687;28;20262;-67
2023/07/08 08:27:06;;;;;;;7.50;6.90;;;;;;;21.37;61.49;95279.63;5114550;28;20203;-67
2023/07/08 08:30:11;;;;;;;6.75;6.15;;;;;;;21.42;61.06;95279.16;5115649;28;20250;-67
2023/07/08 08:33:15;;;;;;;8.13;7.43;;;;;;;21.42;60.48;95279.16;5115042;28;20196;-67
2023/07/08 08:36:22;;;;;;;7.28;6.60;;;;;;;21.45;60.83;95280.31;5115432;28;20191;-67
2023/07/08 08:39:29;;;;;;;7.75;6.90;;;;;;;21.50;61.87;95271.47;5114324;28;20206;-67
2023/07/08 08:42:34;;;;;;;7.80;7.05;;;;;;;21.57;61.77;95260.94;5114995;28;20206;-67
2023/07/08 08:45:38;;;;;;;7.25;6.70;;;;;;;21.64;60.74;95268.47;5114940;28;20249;-68
2023/07/08 08:48:43;;;;;;;7.18;6.53;;;;;;;21.68;61.02;95269.22;5114060;28;20522;-68
2023/07/08 08:51:47;;;;;;;7.32;6.72;;;;;;;21.74;62.04;95261.13;5114418;28;20234;-67
2023/07/08 08:54:52;;;;;;;7.28;6.68;;;;;;;21.73;61.15;95274.38;5114028;28;20299;-67
2023/07/08 08:57:57;;;;;;;6.72;6.22;;;;;;;21.76;61.22;95272.75;5115195;28;20212;-67
2023/07/08 09:01:03;;;;;;;7.13;6.45;;;;;;;21.76;61.22;95267.91;5115128;28;20191;-67
2023/07/08 09:04:11;;;;;;;6.78;6.25;;;;;;;21.71;60.75;95276.78;5118227;28;20195;-67
2023/07/08 09:07:15;;;;;;;7.05;6.35;;;;;;;21.75;61.09;95277.56;5117942;28;20231;-67
2023/07/08 09:10:22;;;;;;;6.78;6.28;;;;;;;21.87;61.30;95271.38;5118229;28;20529;-67
2023/07/08 09:13:26;;;;;;;6.95;6.35;;;;;;;21.88;60.35;95263.75;5118309;28;20627;-67
2023/07/08 09:16:03;;;;;;;7.43;6.75;;;;;;;21.87;60.61;95277.00;5117721;28;20191;-67
2023/07/08 09:18:35;;;;;;;7.35;6.65;;;;;;;21.93;61.47;95268.09;5118590;28;20179;-67
2023/07/08 09:21:07;;;;;;;7.65;7.00;;;;;;;21.94;60.97;95261.28;5117538;28;20192;-67
2023/07/08 09:23:36;;;;;;;7.22;6.55;;;;;;;21.99;59.69;95260.78;5118449;27;20188;-67
2023/07/08 09:26:11;;;;;;;7.35;6.75;;;;;;;22.07;59.95;95265.88;5118535;28;20200;-67
2023/07/08 09:28:41;;;;;;;7.50;6.90;;;;;;;22.18;60.32;95262.16;5116988;28;20241;-67
2023/07/08 09:31:14;;;;;;;7.35;6.47;;;;;;;22.23;60.01;95256.88;5117347;28;20195;-67
2023/07/08 09:33:42;;;;;;;7.25;6.55;;;;;;;22.26;60.81;95253.22;5117542;28;20195;-67
2023/07/08 09:36:18;;;;;;;7.53;6.75;;;;;;;22.38;60.76;95245.41;5118317;28;20180;-67
2023/07/08 09:38:48;;;;;;;7.25;6.65;;;;;;;22.55;62.51;95245.13;5116933;28;20658;-67
2023/07/08 09:41:29;;;;;;;6.82;6.22;;;;;;;22.72;58.64;95239.63;5117181;28;20276;-67
2023/07/08 09:44:10;;;;;;;7.18;6.57;;;;;;;22.76;58.63;95240.34;5118150;28;20195;-67
2023/07/08 09:46:40;;;;;;;7.15;6.35;;;;;;;22.70;58.41;95236.47;5116988;28;20195;-67
2023/07/08 09:49:25;;;;;;;6.10;5.70;;;;;;;22.79;58.49;95231.06;5117923;28;20187;-67
2023/07/08 09:51:57;;;;;;;7.03;6.28;;;;;;;22.94;60.34;95226.78;5117334;28;20222;-67
2023/07/08 09:54:26;;;;;;;7.13;6.53;;;;;;;23.05;57.73;95235.81;5116198;28;20200;-67
2023/07/08 09:56:59;;;;;;;6.25;5.68;;;;;;;23.16;55.21;95220.78;5117472;28;20198;-67
2023/07/08 09:59:32;;;;;;;6.15;5.65;;;;;;;23.21;55.59;95220.28;5117418;28;20240;-67
2023/07/08 10:02:25;;;;;;;6.32;5.82;;;;;;;23.33;55.57;95218.84;5116401;28;20253;-67
2023/07/08 10:04:54;;;;;;;6.40;5.90;;;;;;;23.39;56.12;95231.19;5116704;28;20199;-67
2023/07/08 10:07:21;;;;;;;6.43;5.88;;;;;;;23.51;57.01;95225.69;5117158;28;20230;-67
2023/07/08 10:09:49;;;;;;;5.85;5.35;;;;;;;23.57;54.06;95219.53;5116790;28;20363;-67
2023/07/08 10:12:17;;;;;;;5.95;5.55;;;;;;;23.55;54.11;95220.00;5116753;28;20208;-67
2023/07/08 10:14:46;;;;;;;5.78;5.28;;;;;;;23.59;54.18;95212.25;5116175;28;20194;-67
2023/07/08 10:17:18;;;;;;;6.00;5.50;;;;;;;23.73;55.78;95212.00;5117610;28;20210;-67
2023/07/08 10:19:44;;;;;;;6.05;5.63;;;;;;;23.80;53.18;95202.59;5117522;28;20187;-67
2023/07/08 10:22:22;;;;;;;6.40;5.80;;;;;;;23.81;54.24;95198.53;5117341;28;20190;-67
2023/07/08 10:25:03;;;;;;;6.00;5.50;;;;;;;23.88;55.70;95198.38;5116351;28;20595;-67
2023/07/08 10:27:38;;;;;;;5.82;5.32;;;;;;;23.93;54.07;95191.44;5116683;28;20236;-67
2023/07/08 10:30:15;;;;;;;6.55;5.38;;;;;;;24.01;53.25;95192.88;5116014;28;20579;-67
2023/07/08 10:32:56;;;;;;;5.95;5.45;;;;;;;24.09;51.95;95196.31;5116976;28;20215;-67
2023/07/08 10:35:26;;;;;;;5.45;5.05;;;;;;;24.13;52.71;95191.41;5116176;28;20195;-67
2023/07/08 10:38:10;;;;;;;6.20;5.60;;;;;;;24.19;52.54;95190.44;5117031;28;20214;-67
2023/07/08 10:40:48;;;;;;;5.88;5.38;;;;;;;24.28;53.09;95181.38;5115972;28;20203;-67
2023/07/08 10:43:34;;;;;;;5.35;4.93;;;;;;;24.32;51.90;95184.88;5116886;28;20180;-67
2023/07/08 10:46:12;;;;;;;6.32;5.78;;;;;;;24.37;51.82;95175.91;5116785;28;20493;-67
2023/07/08 10:49:14;;;;;;;5.18;4.72;;;;;;;24.52;54.62;95178.41;5116462;28;20195;-67
2023/07/08 10:51:47;;;;;;;5.63;4.97;;;;;;;24.60;51.54;95177.00;5116361;28;20234;-67
2023/07/08 10:54:30;;;;;;;5.68;5.20;;;;;;;24.64;51.52;95169.22;5116679;28;20180;-67
2023/07/08 10:57:11;;;;;;;8.82;5.55;;;;;;;24.72;52.65;95165.78;5115387;28;20196;-67
2023/07/08 10:59:52;;;;;;;6.60;5.30;;;;;;;24.70;51.19;95164.66;5116616;28;20184;-67
2023/07/08 11:02:54;;;;;;;6.97;5.35;;;;;;;24.76;51.79;95170.53;5115635;28;20203;-67
2023/07/08 11:05:31;;;;;;;5.78;5.20;;;;;;;24.79;52.19;95170.44;5115594;28;20194;-67
2023/07/08 11:08:03;;;;;;;5.55;5.07;;;;;;;24.82;49.79;95158.28;5116406;28;20207;-67
2023/07/08 11:10:35;;;;;;;5.68;5.25;;;;;;;24.89;51.35;95163.72;5116104;28;20268;-67
2023/07/08 11:13:06;;;;;;;5.90;5.40;;;;;;;25.00;51.48;95166.25;5115368;28;20310;-67
2023/07/08 11:15:37;;;;;;;5.78;5.28;;;;;;;25.11;50.32;95161.13;5116323;28;20196;-67
2023/07/08 11:18:08;;;;;;;6.13;5.55;;;;;;;25.18;49.28;95152.47;5115216;28;20188;-67
2023/07/08 11:20:41;;;;;;;5.95;5.47;;;;;;;25.26;48.62;95155.09;5115257;28;20198;-67
2023/07/08 11:23:23;;;;;;;5.60;5.10;;;;;;;25.26;47.87;95140.97;5115809;28;20237;-67
2023/07/08 11:25:55;;;;;;;5.28;4.78;;;;;;;25.24;48.09;95143.44;5114803;28;20204;-67
2023/07/08 11:28:24;;;;;;;5.82;5.38;;;;;;;25.15;49.45;95144.91;5115828;28;20226;-67
2023/07/08 11:30:52;;;;;;;6.07;5.22;;;;;;;25.21;51.69;95147.97;5114346;28;20207;-68
2023/07/08 11:33:24;;;;;;;5.38;4.93;;;;;;;25.28;47.63;95139.31;5114648;28;20215;-67
2023/07/08 11:35:55;;;;;;;6.00;5.50;;;;;;;25.33;50.74;95144.38;5116065;28;20180;-67
2023/07/08 11:38:23;;;;;;;5.57;5.07;;;;;;;25.28;48.32;95150.59;5115912;28;20224;-67
2023/07/08 11:40:54;;;;;;;5.57;5.07;;;;;;;25.26;48.57;95141.78;5114943;28;20199;-67
2023/07/08 11:43:25;;;;;;;6.22;5.32;;;;;;;25.34;49.34;95148.78;5115749;28;20188;-67
2023/07/08 11:45:56;;;;;;;6.00;5.45;;;;;;;25.36;47.67;95151.19;5115916;28;20199;-67
2023/07/08 11:48:26;;;;;;;5.90;4.97;;;;;;;25.42;48.69;95149.41;5114904;28;20188;-67
2023/07/08 11:50:57;;;;;;;5.25;4.85;;;;;;;25.48;47.18;95147.59;5114769;28;20214;-67
2023/07/08 11:53:37;;;;;;;5.70;4.70;;;;;;;25.55;47.47;95138.13;5114825;28;20219;-67
2023/07/08 11:56:07;;;;;;;5.43;4.93;;;;;;;25.70;48.48;95150.56;5115469;28;20274;-67
2023/07/08 11:58:53;;;;;;;5.32;4.82;;;;;;;25.77;48.94;95158.81;5113382;28;20203;-67
2023/07/08 12:01:28;;;;;;;5.05;4.65;;;;;;;25.80;46.04;95152.28;5115118;28;20204;-67
2023/07/08 12:04:01;;;;;;;4.60;4.30;;;;;;;25.87;49.10;95146.44;5115511;28;20225;-67
2023/07/08 12:06:48;;;;;;;5.03;4.57;;;;;;;25.95;46.50;95152.66;5115572;28;20187;-67
2023/07/08 12:09:24;;;;;;;4.60;4.30;;;;;;;25.90;44.29;95154.00;5114737;28;20196;-67
2023/07/08 12:11:55;;;;;;;4.43;4.13;;;;;;;25.69;45.78;95151.81;5115070;28;20213;-67
2023/07/08 12:14:26;;;;;;;5.22;4.72;;;;;;;25.52;45.42;95156.75;5114674;28;20199;-67